Ana Sayfa
METAR-TAF:

METAR-TAF

Havaalanları :

Homestead, Florida, Amerika Birleşik Devletleri

Enlem: 25-29N, Boylam: 080-23W, yükseklik: 2 m

Güncel hava durumu gözlemi

Rapor saat 03:55 UTC de 46 dakika önce yapıldı.
Rüzgar batıdan 3 kt
Sıcaklık 13°C
Nem 72%
Basınç 1023 hPa
Görüş mesafesi: 16.1 km
Açık gökyüzü

METAR: KHST 210355Z AUTO 27003KT 10SM CLR 13/08 A3021 RMK AO2 SLP233 T01250084 $

Saat: 23:41 (04:41 UTC)

Tahmin

Rapor saat 04:00 UTC de 41 dakika önce yapıldı.
Ayın 21'si saat 04 UTC'den ayın 22'si saat 10 UTC'ye kadar geçerli Tahmin
Rüzgar batı/kuzeybatıdan 6 kt
Görüş mesafesi 10 km veya daha fazla
Açık gökyüzü
Dönüşüyor
ayın 21'si saat 14 UTC'den ayın 21'si saat 15 UTC'ye kadar
Rüzgar kuzeydan 6 kt ve 15 kt'a kadar ani rüzgarlar
Görüş mesafesi: 2124 m
3000 ft yükseklikte az bulutlu

TAF: KHST 210400Z 2104/2210 29006KT 9999 SKC QNH3018INS BECMG 2114/2115 35010G15KT 9999 FEW030 QNH3009INS WND 35006KT AFT 2124 TX21/2120Z TN10/2111Z

4.000'den fazla havaalanı için hava durumu gözlemleri ve tahminleri (METAR ve TAF raporları).

Kullanılabilir istasyonlar harita üzerinde sarı ve kırmızı noktalarla gösterilir.

İstasyonun adını görmek için fareyi noktanın üzerinde gezdirin.

Sonrasında hava gözlem ve tahminlerini görmek için tıklayın.

Haritayı değiştirmek için: yaklaştırmak için siyah artı işaretli yeşil düğmeye ve uzaklaştırmak için de eksi işaretli düğmeye hızla tıklayın; bitişik haritalar için yeşil okları kullanın.


METAR-TAF: